Time;durP1;ratioP1;P1;durP2;ratioP2;P2;SDS_P1;SDS_P2;PMS_P1;PMS_P2;Temp;Humidity;BMP_temperature;BMP_pressure;BME280_temperature;BME280_humidity;BME280_pressure;Samples;Min_cycle;Max_cycle;Signal;HPM_P1;HPM_P2
2021/12/03 00:02:09;;;;;;;1.52;0.98;;;21.30;29.70;;;;;;5021639;28;20041;-48
2021/12/03 00:04:35;;;;;;;1.85;1.05;;;21.40;29.80;;;;;;5025677;28;20040;-57
2021/12/03 00:07:00;;;;;;;1.35;0.95;;;21.30;29.70;;;;;;5026952;28;20033;-54
2021/12/03 00:09:27;;;;;;;2.22;1.00;;;21.40;29.80;;;;;;5023213;28;20068;-51
2021/12/03 00:11:52;;;;;;;1.52;1.00;;;21.30;29.70;;;;;;5023456;28;20040;-53
2021/12/03 00:14:18;;;;;;;1.23;0.80;;;21.30;29.70;;;;;;5025770;28;20029;-55
2021/12/03 00:16:44;;;;;;;1.00;0.82;;;21.30;29.70;;;;;;5023498;28;20036;-51
2021/12/03 00:19:10;;;;;;;1.48;0.88;;;21.30;29.70;;;;;;5024472;28;20034;-54
2021/12/03 00:21:37;;;;;;;1.10;0.90;;;21.30;29.70;;;;;;5019857;28;20045;-53
2021/12/03 00:24:03;;;;;;;1.48;0.88;;;21.30;29.70;;;;;;5025635;28;20044;-51
2021/12/03 00:26:29;;;;;;;1.85;1.10;;;21.20;29.70;;;;;;5021104;28;20420;-53
2021/12/03 00:28:55;;;;;;;1.15;0.90;;;21.30;29.70;;;;;;5021678;28;20380;-53
2021/12/03 00:31:21;;;;;;;0.95;0.68;;;21.20;29.70;;;;;;5024423;28;20021;-52
2021/12/03 00:33:47;;;;;;;1.50;0.77;;;21.30;29.70;;;;;;5023536;28;20415;-51
2021/12/03 00:36:13;;;;;;;1.17;0.85;;;21.30;29.70;;;;;;5023078;28;20349;-51
2021/12/03 00:38:43;;;;;;;2.58;1.20;;;21.20;29.70;;;;;;5025681;28;20041;-54
2021/12/03 00:41:13;;;;;;;1.92;0.80;;;21.20;29.70;;;;;;5023742;28;20052;-56
2021/12/03 00:43:46;;;;;;;1.13;0.80;;;21.30;29.80;;;;;;5025021;28;20048;-57
2021/12/03 00:46:15;;;;;;;1.95;1.00;;;21.20;29.80;;;;;;5024258;28;20034;-48
2021/12/03 00:48:41;;;;;;;1.73;1.00;;;21.20;29.80;;;;;;5026596;28;20066;-52
2021/12/03 00:51:08;;;;;;;1.15;0.77;;;21.20;29.80;;;;;;5022849;28;20033;-54
2021/12/03 00:53:34;;;;;;;0.93;0.60;;;21.20;29.80;;;;;;5024489;28;20034;-51
2021/12/03 00:56:01;;;;;;;1.88;1.00;;;21.20;29.80;;;;;;5019936;28;20041;-52
2021/12/03 00:58:27;;;;;;;1.52;0.98;;;21.20;29.80;;;;;;5021507;28;20113;-55
2021/12/03 01:00:53;;;;;;;1.75;0.90;;;21.20;29.80;;;;;;5020661;28;20065;-54
2021/12/03 01:03:19;;;;;;;1.13;0.80;;;21.20;29.80;;;;;;5022431;28;20022;-53
2021/12/03 01:05:45;;;;;;;1.42;0.80;;;21.20;29.80;;;;;;5020711;28;20032;-51
2021/12/03 01:08:11;;;;;;;0.90;0.70;;;21.20;29.80;;;;;;5023567;28;20352;-54
2021/12/03 01:10:36;;;;;;;0.77;0.63;;;21.20;29.80;;;;;;5023025;28;20029;-52
2021/12/03 01:13:03;;;;;;;1.92;0.95;;;21.20;29.80;;;;;;5021582;28;20525;-51
2021/12/03 01:15:32;;;;;;;1.58;0.80;;;21.20;29.80;;;;;;5025191;28;20057;-58
2021/12/03 01:17:58;;;;;;;1.13;0.60;;;21.20;29.80;;;;;;5024397;28;20037;-55
2021/12/03 01:20:24;;;;;;;1.35;0.70;;;21.20;29.80;;;;;;5023699;28;20041;-54
2021/12/03 01:22:52;;;;;;;1.55;0.70;;;21.20;29.80;;;;;;5022719;28;20036;-52
2021/12/03 01:25:20;;;;;;;1.30;0.70;;;21.20;29.80;;;;;;5028745;28;20034;-54
2021/12/03 01:27:47;;;;;;;0.80;0.55;;;21.20;29.80;;;;;;5019566;28;20022;-54
2021/12/03 01:30:15;;;;;;;1.23;0.63;;;21.20;29.80;;;;;;5022723;28;20045;-55
2021/12/03 01:32:41;;;;;;;2.05;0.70;;;21.10;29.80;;;;;;5020868;28;20030;-51
2021/12/03 01:35:09;;;;;;;1.50;0.70;;;21.10;29.80;;;;;;5020602;28;20021;-57
2021/12/03 01:37:35;;;;;;;1.98;0.80;;;21.10;29.80;;;;;;5020339;28;20022;-54
2021/12/03 01:40:01;;;;;;;1.17;0.68;;;21.10;29.80;;;;;;5020438;28;20037;-54
2021/12/03 01:42:27;;;;;;;1.00;0.75;;;21.10;29.80;;;;;;5022799;28;20445;-56
2021/12/03 01:44:53;;;;;;;1.58;0.80;;;21.10;29.80;;;;;;5020898;28;20037;-55
2021/12/03 01:47:19;;;;;;;2.28;0.80;;;21.10;29.80;;;;;;5022947;28;20053;-53
2021/12/03 01:49:45;;;;;;;1.05;0.60;;;21.10;29.80;;;;;;5020538;28;20056;-52
2021/12/03 01:52:11;;;;;;;0.98;0.60;;;21.10;29.80;;;;;;5023093;28;20048;-51
2021/12/03 01:54:36;;;;;;;1.27;0.80;;;21.10;29.80;;;;;;5021900;28;20025;-55
2021/12/03 01:57:02;;;;;;;1.35;0.70;;;21.00;29.80;;;;;;5022711;28;20028;-53
2021/12/03 01:59:28;;;;;;;0.75;0.60;;;21.10;29.80;;;;;;5021691;28;20100;-57
2021/12/03 02:01:54;;;;;;;1.30;0.50;;;21.10;29.80;;;;;;5022298;28;20120;-52
2021/12/03 02:04:20;;;;;;;1.08;0.70;;;21.00;29.80;;;;;;5023887;28;20359;-57
2021/12/03 02:06:46;;;;;;;0.73;0.50;;;21.00;29.80;;;;;;5023050;28;20022;-51
2021/12/03 02:09:12;;;;;;;2.00;0.80;;;21.00;29.80;;;;;;5022927;28;20444;-47
2021/12/03 02:11:37;;;;;;;0.68;0.60;;;21.00;29.80;;;;;;5022591;28;20456;-54
2021/12/03 02:14:03;;;;;;;1.13;0.60;;;21.00;29.80;;;;;;5023002;28;20060;-53
2021/12/03 02:16:29;;;;;;;0.80;0.50;;;21.00;29.80;;;;;;5020005;28;20029;-49
2021/12/03 02:18:55;;;;;;;1.05;0.70;;;21.00;29.80;;;;;;5023135;28;20136;-50
2021/12/03 02:21:22;;;;;;;1.60;0.68;;;21.00;29.80;;;;;;5021135;28;20157;-54
2021/12/03 02:23:52;;;;;;;1.88;0.73;;;21.00;29.80;;;;;;5017538;28;20041;-53
2021/12/03 02:26:18;;;;;;;0.93;0.47;;;21.00;29.80;;;;;;5021706;28;20284;-51
2021/12/03 02:28:49;;;;;;;1.83;0.80;;;21.00;29.80;;;;;;5019917;28;20101;-53
2021/12/03 02:31:17;;;;;;;1.50;0.52;;;21.00;29.80;;;;;;5022610;28;20041;-50
2021/12/03 02:33:44;;;;;;;1.58;0.60;;;21.00;29.90;;;;;;5024636;28;20040;-50
2021/12/03 02:36:10;;;;;;;0.75;0.55;;;21.00;29.90;;;;;;5020325;28;20040;-56
2021/12/03 02:38:36;;;;;;;0.57;0.50;;;21.00;29.90;;;;;;5021438;28;20418;-50
2021/12/03 02:41:03;;;;;;;1.33;0.80;;;20.90;29.80;;;;;;5023542;28;20030;-51
2021/12/03 02:43:30;;;;;;;1.08;0.60;;;20.90;29.80;;;;;;5021700;28;20457;-50
2021/12/03 02:45:57;;;;;;;0.73;0.47;;;20.90;30.00;;;;;;5023581;28;20349;-51
2021/12/03 02:48:25;;;;;;;0.80;0.60;;;20.90;29.90;;;;;;5021754;28;20504;-49
2021/12/03 02:50:52;;;;;;;0.93;0.70;;;21.00;29.90;;;;;;5023732;28;20044;-48
2021/12/03 02:53:18;;;;;;;1.23;0.60;;;20.90;29.90;;;;;;5018939;28;20427;-50
2021/12/03 02:55:44;;;;;;;0.90;0.50;;;20.90;29.90;;;;;;5020474;28;20057;-52
2021/12/03 02:58:12;;;;;;;0.88;0.55;;;20.90;29.90;;;;;;5019333;28;20026;-50
2021/12/03 03:00:39;;;;;;;1.98;0.82;;;20.90;29.90;;;;;;5018797;28;20038;-59
2021/12/03 03:03:05;;;;;;;1.38;0.60;;;20.90;29.90;;;;;;5026345;28;20045;-55
2021/12/03 03:05:31;;;;;;;1.00;0.60;;;20.90;29.90;;;;;;5026192;28;20037;-54
2021/12/03 03:07:58;;;;;;;1.50;0.80;;;20.90;29.90;;;;;;5029953;28;20017;-50
2021/12/03 03:10:28;;;;;;;1.02;0.50;;;20.90;29.90;;;;;;5026554;28;20057;-50
2021/12/03 03:12:57;;;;;;;1.45;0.88;;;20.90;29.90;;;;;;5023330;28;20037;-56
2021/12/03 03:15:23;;;;;;;3.05;0.73;;;20.90;29.90;;;;;;5022726;28;20388;-52
2021/12/03 03:17:50;;;;;;;0.85;0.50;;;20.90;29.90;;;;;;5028086;28;20026;-50
2021/12/03 03:20:16;;;;;;;1.02;0.50;;;20.80;29.90;;;;;;5024474;28;20179;-54
2021/12/03 03:22:43;;;;;;;1.70;0.80;;;20.80;29.90;;;;;;5026686;28;20025;-49
2021/12/03 03:25:12;;;;;;;0.73;0.50;;;20.80;29.90;;;;;;5022210;28;20040;-50
2021/12/03 03:27:39;;;;;;;0.75;0.68;;;20.90;30.00;;;;;;5025775;28;20022;-52
2021/12/03 03:30:08;;;;;;;1.40;0.80;;;20.80;29.90;;;;;;5022193;28;20381;-53
2021/12/03 03:32:35;;;;;;;1.02;0.60;;;20.80;29.90;;;;;;5023767;28;20037;-50
2021/12/03 03:35:01;;;;;;;1.10;0.60;;;20.80;29.90;;;;;;5025503;28;20022;-56
2021/12/03 03:37:26;;;;;;;0.95;0.60;;;20.80;29.90;;;;;;5023743;28;20045;-51
2021/12/03 03:39:52;;;;;;;1.35;0.80;;;20.80;29.90;;;;;;5024149;28;20077;-50
2021/12/03 03:42:18;;;;;;;1.63;0.60;;;20.80;29.90;;;;;;5024501;28;20044;-57
2021/12/03 03:44:44;;;;;;;0.85;0.52;;;20.80;29.90;;;;;;5023937;28;20026;-53
2021/12/03 03:47:11;;;;;;;1.10;0.60;;;20.80;30.00;;;;;;5024980;28;20021;-55
2021/12/03 03:49:37;;;;;;;1.00;0.68;;;20.80;30.00;;;;;;5025089;28;20120;-55
2021/12/03 03:52:05;;;;;;;1.20;0.85;;;20.70;29.90;;;;;;5026572;28;20428;-53
2021/12/03 03:54:31;;;;;;;0.73;0.50;;;20.80;30.00;;;;;;5022456;28;20369;-48
2021/12/03 03:56:57;;;;;;;1.88;0.90;;;20.70;29.90;;;;;;5025702;28;20030;-53
2021/12/03 03:59:23;;;;;;;1.00;0.60;;;20.70;30.00;;;;;;5022688;28;20124;-51
2021/12/03 04:01:51;;;;;;;1.05;0.70;;;20.70;30.00;;;;;;5024158;28;20129;-51
2021/12/03 04:04:17;;;;;;;0.60;0.50;;;20.70;30.00;;;;;;5020523;28;20038;-51
2021/12/03 04:06:44;;;;;;;1.58;0.73;;;20.70;30.00;;;;;;5027538;28;20061;-52
2021/12/03 04:09:11;;;;;;;2.03;0.60;;;20.70;30.00;;;;;;5020948;28;20459;-54
2021/12/03 04:11:37;;;;;;;2.08;0.70;;;20.80;30.00;;;;;;5025608;28;20111;-53
2021/12/03 04:14:03;;;;;;;1.05;0.70;;;20.70;30.00;;;;;;5021869;28;20030;-55
2021/12/03 04:16:30;;;;;;;1.80;0.52;;;20.70;30.00;;;;;;5021075;28;20026;-55
2021/12/03 04:18:57;;;;;;;1.00;0.63;;;20.80;30.00;;;;;;5025547;28;20033;-53
2021/12/03 04:21:23;;;;;;;1.48;0.70;;;20.70;30.00;;;;;;5026174;28;20100;-54
2021/12/03 04:23:50;;;;;;;1.33;0.70;;;20.70;30.00;;;;;;5023436;28;20022;-54
2021/12/03 04:26:15;;;;;;;1.25;0.77;;;20.70;30.00;;;;;;5026437;28;20030;-53
2021/12/03 04:28:41;;;;;;;1.33;0.80;;;20.70;30.10;;;;;;5023994;28;20051;-50
2021/12/03 04:31:07;;;;;;;1.98;0.85;;;20.70;30.10;;;;;;5018041;28;20022;-57
2021/12/03 04:33:33;;;;;;;1.25;0.85;;;20.70;30.10;;;;;;5023200;28;20036;-51
2021/12/03 04:36:01;;;;;;;0.98;0.75;;;20.70;30.10;;;;;;5021028;28;20127;-52
2021/12/03 04:38:27;;;;;;;1.10;0.80;;;20.70;30.10;;;;;;5025290;28;20456;-53
2021/12/03 04:40:53;;;;;;;1.33;0.80;;;20.70;30.10;;;;;;5026172;28;20079;-54
2021/12/03 04:43:19;;;;;;;1.45;0.85;;;20.70;30.10;;;;;;5023800;28;20053;-54
2021/12/03 04:45:45;;;;;;;1.50;1.10;;;20.70;30.20;;;;;;5021791;28;20033;-55
2021/12/03 04:48:11;;;;;;;1.58;1.08;;;20.60;30.10;;;;;;5024851;28;20025;-52
2021/12/03 04:50:40;;;;;;;1.58;0.95;;;20.70;30.20;;;;;;5021998;28;20049;-53
2021/12/03 04:53:07;;;;;;;1.10;1.00;;;20.70;30.20;;;;;;5025495;28;20041;-53
2021/12/03 04:55:33;;;;;;;2.33;1.33;;;20.60;30.20;;;;;;5021132;28;20071;-53
2021/12/03 04:57:59;;;;;;;1.55;1.23;;;20.60;30.20;;;;;;5019091;28;20534;-53
2021/12/03 05:00:32;;;;;;;2.70;1.38;;;20.60;30.20;;;;;;5019892;28;20120;-51
2021/12/03 05:02:59;;;;;;;1.85;1.30;;;20.70;30.20;;;;;;5021821;28;20056;-51
2021/12/03 05:05:27;;;;;;;2.90;1.88;;;20.60;30.90;;;;;;5020437;28;20183;-52
2021/12/03 05:08:04;;;;;;;2.10;1.52;;;20.60;30.20;;;;;;5024759;28;20032;-52
2021/12/03 05:10:33;;;;;;;2.50;1.55;;;20.60;30.20;;;;;;5019705;28;20029;-51
2021/12/03 05:13:17;;;;;;;3.05;2.20;;;20.60;30.20;;;;;;5022052;28;20025;-52
2021/12/03 05:15:44;;;;;;;3.08;2.20;;;20.70;30.30;;;;;;5020913;28;20088;-54
2021/12/03 05:18:14;;;;;;;2.75;1.92;;;20.60;30.20;;;;;;5025520;28;20033;-51
2021/12/03 05:20:41;;;;;;;3.42;2.42;;;20.60;30.20;;;;;;5022384;28;20026;-50
2021/12/03 05:23:09;;;;;;;3.40;2.30;;;20.60;30.30;;;;;;5023707;28;20123;-52
2021/12/03 05:25:35;;;;;;;3.83;2.60;;;20.60;30.30;;;;;;5022673;28;20029;-53
2021/12/03 05:28:02;;;;;;;4.00;2.65;;;20.60;30.30;;;;;;5026932;28;20116;-53
2021/12/03 05:30:28;;;;;;;4.13;3.00;;;20.60;30.30;;;;;;5024148;28;20040;-55
2021/12/03 05:32:55;;;;;;;4.75;3.17;;;20.60;30.30;;;;;;5023190;28;20029;-54
2021/12/03 05:35:21;;;;;;;5.03;3.22;;;20.60;30.30;;;;;;5023142;28;20027;-52
2021/12/03 05:37:47;;;;;;;5.05;3.50;;;20.60;30.40;;;;;;5026288;28;20025;-54
2021/12/03 05:40:14;;;;;;;4.03;3.08;;;20.60;30.30;;;;;;5019680;28;20091;-56
2021/12/03 05:42:42;;;;;;;6.05;3.88;;;20.60;30.40;;;;;;5025165;28;20029;-56
2021/12/03 05:45:11;;;;;;;5.13;3.38;;;20.50;30.30;;;;;;5022089;28;20230;-50
2021/12/03 05:47:37;;;;;;;6.45;3.92;;;20.60;30.40;;;;;;5023268;28;20059;-51
2021/12/03 05:50:05;;;;;;;5.70;3.85;;;20.50;30.40;;;;;;5018875;28;20025;-53
2021/12/03 05:52:30;;;;;;;5.05;3.85;;;20.50;30.40;;;;;;5021929;28;20088;-48
2021/12/03 05:54:56;;;;;;;5.40;3.38;;;20.50;30.40;;;;;;5023304;28;20021;-53
2021/12/03 05:57:22;;;;;;;6.03;3.65;;;20.50;30.40;;;;;;5021022;28;20108;-56
2021/12/03 05:59:48;;;;;;;4.75;3.65;;;20.50;30.40;;;;;;5022075;28;20045;-54
2021/12/03 06:02:14;;;;;;;4.82;3.70;;;20.50;30.40;;;;;;5024728;28;20058;-54
2021/12/03 06:04:40;;;;;;;5.57;3.90;;;20.50;30.40;;;;;;5019544;28;20056;-52
2021/12/03 06:07:07;;;;;;;5.47;4.20;;;20.50;30.40;;;;;;5021136;28;20034;-54
2021/12/03 06:09:33;;;;;;;7.00;4.50;;;20.50;30.50;;;;;;5023569;28;20045;-52
2021/12/03 06:12:01;;;;;;;6.13;4.05;;;20.50;30.50;;;;;;5026260;28;20033;-56
2021/12/03 06:14:28;;;;;;;6.32;4.35;;;20.50;30.50;;;;;;5019978;28;20039;-48
2021/12/03 06:16:54;;;;;;;5.93;4.47;;;20.50;31.20;;;;;;5025185;28;20433;-52
2021/12/03 06:19:20;;;;;;;5.47;4.18;;;20.50;30.50;;;;;;5024351;28;20452;-53
2021/12/03 06:21:46;;;;;;;5.78;4.07;;;20.50;30.50;;;;;;5020241;28;20099;-55
2021/12/03 06:24:12;;;;;;;6.28;4.65;;;20.50;30.50;;;;;;5027264;28;20026;-54
2021/12/03 06:26:38;;;;;;;6.45;4.63;;;20.50;30.60;;;;;;5018536;28;20491;-52
2021/12/03 06:29:03;;;;;;;6.75;4.82;;;20.50;30.60;;;;;;5020694;28;20034;-48
2021/12/03 06:31:29;;;;;;;6.60;4.90;;;20.50;30.60;;;;;;5021666;28;20032;-54
2021/12/03 06:33:55;;;;;;;6.45;4.60;;;20.50;30.60;;;;;;5023594;28;20357;-55
2021/12/03 06:36:22;;;;;;;6.18;4.57;;;20.50;30.60;;;;;;5023330;28;20021;-55
2021/12/03 06:38:48;;;;;;;5.93;4.95;;;20.50;30.60;;;;;;5029438;28;20556;-52
2021/12/03 06:41:14;;;;;;;6.57;4.72;;;20.50;30.60;;;;;;5026824;28;20091;-49
2021/12/03 06:43:39;;;;;;;5.70;4.60;;;20.50;30.60;;;;;;5027216;28;20021;-53
2021/12/03 06:46:05;;;;;;;6.60;4.68;;;20.50;30.70;;;;;;5023016;28;20357;-55
2021/12/03 06:48:31;;;;;;;7.30;4.68;;;20.50;30.60;;;;;;5023216;28;20544;-51
2021/12/03 06:50:57;;;;;;;6.93;4.70;;;20.50;30.70;;;;;;5023021;28;20072;-51
2021/12/03 06:53:33;;;;;;;6.97;4.93;;;20.40;30.60;;;;;;5026001;28;20456;-53
2021/12/03 06:56:05;;;;;;;7.18;5.00;;;20.50;30.70;;;;;;5020427;28;20034;-57
2021/12/03 06:58:31;;;;;;;6.13;4.50;;;20.40;30.70;;;;;;5026301;28;20087;-51
2021/12/03 07:00:57;;;;;;;6.03;4.45;;;20.40;30.70;;;;;;5024471;28;20032;-51
2021/12/03 07:03:23;;;;;;;5.95;4.35;;;20.40;30.70;;;;;;5023190;28;20578;-52
2021/12/03 07:05:49;;;;;;;5.93;4.25;;;20.40;30.70;;;;;;5023280;28;20042;-50
2021/12/03 07:08:15;;;;;;;7.10;4.93;;;20.40;30.70;;;;;;5027447;28;20053;-54
2021/12/03 07:10:41;;;;;;;8.75;5.22;;;20.40;30.80;;;;;;5024289;28;20064;-54
2021/12/03 07:13:07;;;;;;;6.63;4.50;;;20.40;30.70;;;;;;5023118;28;20325;-56
2021/12/03 07:15:33;;;;;;;6.25;4.13;;;20.40;30.80;;;;;;5026135;28;20025;-53
2021/12/03 07:17:59;;;;;;;5.53;4.10;;;20.40;30.80;;;;;;5022144;28;20030;-50
2021/12/03 07:20:26;;;;;;;5.97;3.88;;;20.40;30.80;;;;;;5022340;28;20038;-53
2021/12/03 07:22:53;;;;;;;4.90;3.80;;;20.40;30.80;;;;;;5026134;28;20022;-55
2021/12/03 07:25:20;;;;;;;5.78;4.18;;;20.40;30.80;;;;;;5025217;28;20068;-54
2021/12/03 07:27:46;;;;;;;5.93;3.60;;;20.40;30.80;;;;;;5021909;28;20322;-53
2021/12/03 07:30:13;;;;;;;6.38;3.80;;;20.40;30.80;;;;;;5025611;28;20468;-56
2021/12/03 07:32:39;;;;;;;5.28;3.58;;;20.40;30.90;;;;;;5022449;28;20041;-49
2021/12/03 07:35:07;;;;;;;5.53;3.65;;;20.40;30.90;;;;;;5024274;28;20037;-54
2021/12/03 07:37:33;;;;;;;6.20;3.78;;;20.40;30.90;;;;;;5023885;28;20373;-49
2021/12/03 07:40:03;;;;;;;3.95;3.10;;;20.40;31.00;;;;;;5025477;28;20045;-55
2021/12/03 07:42:28;;;;;;;4.55;3.00;;;20.40;31.10;;;;;;5029454;28;20104;-51
2021/12/03 07:44:54;;;;;;;5.25;3.40;;;20.40;31.20;;;;;;5022285;28;20109;-53
2021/12/03 07:47:20;;;;;;;5.00;3.08;;;20.40;31.30;;;;;;5025861;28;20021;-57
2021/12/03 07:49:48;;;;;;;4.80;3.40;;;20.50;31.50;;;;;;5023469;28;20026;-55
2021/12/03 07:52:15;;;;;;;4.47;3.03;;;20.50;31.40;;;;;;5026909;28;20057;-56
2021/12/03 07:54:41;;;;;;;5.15;3.50;;;20.60;31.50;;;;;;5026598;28;20022;-53
2021/12/03 07:57:07;;;;;;;6.57;2.92;;;20.70;31.40;;;;;;5026167;28;20357;-54
2021/12/03 07:59:33;;;;;;;4.30;2.78;;;20.80;31.40;;;;;;5021874;28;20072;-55
2021/12/03 08:01:59;;;;;;;4.47;2.67;;;20.80;31.30;;;;;;5019506;28;20052;-56
2021/12/03 08:04:24;;;;;;;4.53;2.97;;;20.90;31.20;;;;;;5025373;28;20345;-47
2021/12/03 08:06:54;;;;;;;4.53;3.00;;;21.00;31.20;;;;;;5022395;28;20139;-52
2021/12/03 08:09:22;;;;;;;3.88;2.72;;;21.10;31.10;;;;;;5023652;28;20388;-49
2021/12/03 08:11:48;;;;;;;4.57;2.55;;;21.20;31.00;;;;;;5021357;28;20033;-50
2021/12/03 08:14:14;;;;;;;4.35;2.53;;;21.30;30.90;;;;;;5023173;28;20449;-53
2021/12/03 08:16:40;;;;;;;4.75;2.67;;;21.40;30.80;;;;;;5033012;28;20060;-55
2021/12/03 08:19:06;;;;;;;4.53;2.83;;;21.50;30.70;;;;;;5026112;28;20034;-53
2021/12/03 08:21:31;;;;;;;5.82;3.17;;;21.60;30.60;;;;;;5025539;28;20033;-50
2021/12/03 08:24:01;;;;;;;5.68;2.30;;;21.70;30.50;;;;;;5020022;28;20488;-54
2021/12/03 08:26:28;;;;;;;3.92;2.42;;;21.80;30.50;;;;;;5018450;28;20702;-54
2021/12/03 08:28:54;;;;;;;2.92;2.10;;;21.90;30.40;;;;;;5028221;28;20025;-52
2021/12/03 08:31:21;;;;;;;3.60;2.25;;;21.90;30.30;;;;;;5020536;28;20108;-54
2021/12/03 08:33:47;;;;;;;4.18;2.40;;;22.00;30.20;;;;;;5027177;28;20034;-49
2021/12/03 08:36:13;;;;;;;4.70;2.53;;;22.10;30.10;;;;;;5021918;28;20029;-54
2021/12/03 08:38:40;;;;;;;3.95;2.10;;;22.20;30.00;;;;;;5022965;28;20057;-52
2021/12/03 08:41:06;;;;;;;3.92;2.15;;;22.30;30.00;;;;;;5025768;28;20037;-51
2021/12/03 08:43:32;;;;;;;5.07;1.90;;;22.40;29.90;;;;;;5029741;28;20033;-52
2021/12/03 08:46:00;;;;;;;3.35;1.67;;;22.50;29.90;;;;;;5024038;28;20121;-51
2021/12/03 08:48:34;;;;;;;3.25;1.95;;;22.60;29.70;;;;;;5020815;28;20049;-55
2021/12/03 08:51:49;;;;;;;3.97;2.45;;;22.70;29.70;;;;;;5025285;28;20071;-53
2021/12/03 08:56:33;;;;;;;4.28;2.03;;;22.80;29.50;;;;;;5020613;28;20072;-54
2021/12/03 08:58:59;;;;;;;3.15;1.63;;;22.90;29.40;;;;;;5025003;28;20073;-53
2021/12/03 09:01:25;;;;;;;3.58;1.98;;;22.90;29.30;;;;;;5027844;28;20045;-54
2021/12/03 09:03:53;;;;;;;2.80;1.80;;;23.00;29.30;;;;;;5029211;28;20412;-56
2021/12/03 09:06:18;;;;;;;3.95;1.83;;;23.10;29.20;;;;;;5026492;28;20037;-52
2021/12/03 09:08:44;;;;;;;3.67;1.98;;;23.10;29.10;;;;;;5027740;28;20455;-51
2021/12/03 09:11:10;;;;;;;4.00;1.80;;;23.20;29.10;;;;;;5018398;28;20026;-55
2021/12/03 09:13:36;;;;;;;3.35;1.60;;;23.20;29.00;;;;;;5024667;28;20033;-57
2021/12/03 09:16:11;;;;;;;3.65;1.77;;;23.30;28.90;;;;;;5043281;28;20037;-53
2021/12/03 09:18:39;;;;;;;2.17;1.38;;;23.30;28.90;;;;;;5035100;28;20033;-52
2021/12/03 09:21:09;;;;;;;2.78;1.40;;;23.40;28.80;;;;;;5054748;28;20483;-51
2021/12/03 09:23:53;;;;;;;7.30;1.83;;;23.40;28.80;;;;;;5018785;28;20030;-54
2021/12/03 09:26:20;;;;;;;;;;;23.50;28.70;;;;;;5040918;28;20100;-56
2021/12/03 09:28:59;;;;;;;2.65;1.55;;;23.50;28.70;;;;;;5035197;28;20006;-52
2021/12/03 09:31:24;;;;;;;3.30;1.75;;;23.60;28.60;;;;;;5033922;28;20151;-54
2021/12/03 09:33:51;;;;;;;2.70;1.15;;;23.60;28.60;;;;;;5034933;28;20124;-55
2021/12/03 09:36:18;;;;;;;3.10;1.40;;;23.70;28.50;;;;;;5034756;28;20033;-55
2021/12/03 09:38:44;;;;;;;2.88;1.63;;;23.80;28.50;;;;;;5033416;28;20069;-53
2021/12/03 09:41:16;;;;;;;4.15;1.58;;;23.80;28.50;;;;;;5034123;28;20080;-51
2021/12/03 09:43:45;;;;;;;3.45;1.60;;;23.80;28.40;;;;;;5033519;28;20364;-54
2021/12/03 09:51:06;;;;;;;2.83;1.60;;;24.00;28.30;;;;;;5021630;28;20046;-54
2021/12/03 09:54:04;;;;;;;3.13;1.10;;;24.00;28.20;;;;;;5023825;28;20034;-53
2021/12/03 09:56:25;;;;;;;2.28;1.30;;;24.00;28.20;;;;;;5022687;28;20109;-51
2021/12/03 10:15:07;;;;;;;3.07;1.40;;;24.10;28.20;;;;;;5024752;28;20038;-52
2021/12/03 10:17:52;;;;;;;2.90;1.17;;;24.10;28.20;;;;;;5023393;28;20295;-54
2021/12/03 10:20:26;;;;;;;2.25;1.20;;;24.10;28.30;;;;;;5029589;28;20457;-55
2021/12/03 10:37:14;;;;;;;2.97;1.27;;;23.80;28.20;;;;;;5026174;28;20025;-54
2021/12/03 10:47:39;;;;;;;2.22;1.08;;;23.60;28.00;;;;;;5027861;28;20337;-49
2021/12/03 10:50:22;;;;;;;1.98;1.10;;;23.60;28.00;;;;;;5019482;28;20125;-55
2021/12/03 11:20:09;;;;;;;2.60;1.05;;;23.40;28.20;;;;;;5021997;28;20090;-52
2021/12/03 11:26:40;;;;;;;2.88;1.27;;;23.50;28.40;;;;;;5007762;28;20034;-56
2021/12/03 11:46:05;;;;;;;1.60;0.80;;;23.70;28.80;;;;;;5016916;28;21670;-52
2021/12/03 12:06:26;;;;;;;3.27;0.87;;;23.70;28.80;;;;;;5017526;28;20168;-54
2021/12/03 12:23:37;;;;;;;1.60;0.80;;;23.70;28.80;;;;;;4969214;28;20525;-46
2021/12/03 12:28:08;;;;;;;1.85;1.00;;;23.60;28.80;;;;;;5020107;28;20088;-51
2021/12/03 12:36:34;;;;;;;1.65;0.82;;;23.60;28.90;;;;;;4953191;28;20039;-53
2021/12/03 13:12:34;;;;;;;1.73;0.93;;;23.50;28.90;;;;;;5013222;28;20037;-51
2021/12/03 13:39:08;;;;;;;1.15;0.70;;;23.60;28.70;;;;;;5034274;28;20025;-52
2021/12/03 14:37:47;;;;;;;3.58;0.60;;;23.80;28.80;;;;;;5042828;28;20029;-49
2021/12/03 14:53:54;;;;;;;1.10;0.50;;;23.80;28.70;;;;;;5042987;28;20041;-48
2021/12/03 14:56:24;;;;;;;0.82;0.40;;;23.80;28.80;;;;;;5042923;28;20036;-45
2021/12/03 14:59:20;;;;;;;1.50;0.60;;;23.80;28.80;;;;;;5040279;28;20282;-46
2021/12/03 15:02:01;;;;;;;1.58;0.50;;;23.80;28.80;;;;;;5039110;28;20033;-50
2021/12/03 15:07:13;;;;;;;0.93;0.55;;;23.80;28.80;;;;;;5043291;28;20032;-47
2021/12/03 15:09:42;;;;;;;1.35;0.50;;;23.70;28.80;;;;;;5039791;28;20021;-51
2021/12/03 15:33:03;;;;;;;1.38;0.50;;;23.90;29.00;;;;;;5041403;28;20025;-51
2021/12/03 16:10:20;;;;;;;0.90;0.60;;;23.90;29.30;;;;;;5041561;28;20074;-49
2021/12/03 16:50:57;;;;;;;0.57;0.40;;;23.80;30.00;;;;;;5035640;28;20039;-55
2021/12/03 16:53:26;;;;;;;1.08;0.50;;;23.80;30.20;;;;;;5034916;28;20034;-52
2021/12/03 16:58:39;;;;;;;0.77;0.40;;;23.90;30.20;;;;;;5033456;28;20210;-52
2021/12/03 17:01:17;;;;;;;1.15;0.52;;;23.90;30.00;;;;;;5016951;28;20036;-52
2021/12/03 17:57:53;;;;;;;0.60;0.50;;;23.90;29.40;;;;;;5047463;28;20112;-49
2021/12/03 18:00:29;;;;;;;0.55;0.30;;;24.00;29.50;;;;;;5043404;28;20032;-51
2021/12/03 18:03:05;;;;;;;0.35;0.35;;;24.00;29.50;;;;;;5047175;28;20032;-54
2021/12/03 18:51:29;;;;;;;0.70;0.30;;;23.80;29.50;;;;;;5047328;28;20103;-50
2021/12/03 18:56:35;;;;;;;0.40;0.30;;;23.90;29.50;;;;;;5036769;28;20027;-47
2021/12/03 18:59:07;;;;;;;0.45;0.30;;;23.80;29.50;;;;;;5040285;28;20036;-49
2021/12/03 19:01:34;;;;;;;0.30;0.20;;;23.80;29.50;;;;;;5047498;28;20048;-49
2021/12/03 19:06:47;;;;;;;0.43;0.25;;;23.80;29.50;;;;;;5052877;28;20017;-50
2021/12/03 19:12:19;;;;;;;0.30;0.30;;;23.80;29.60;;;;;;5036832;28;20065;-50
2021/12/03 19:14:52;;;;;;;0.20;0.20;;;23.70;29.60;;;;;;5053669;28;20136;-47
2021/12/03 19:17:18;;;;;;;0.52;0.40;;;23.70;29.60;;;;;;5054973;28;20025;-51
2021/12/03 19:19:50;;;;;;;0.30;0.30;;;23.70;29.60;;;;;;5052949;28;20447;-49
2021/12/03 19:22:16;;;;;;;0.73;0.50;;;23.70;29.70;;;;;;5054729;28;20020;-47
2021/12/03 19:24:43;;;;;;;0.30;0.30;;;23.70;29.70;;;;;;5054420;28;20025;-48
2021/12/03 19:27:10;;;;;;;0.20;0.20;;;23.60;29.70;;;;;;5054884;28;20036;-49
2021/12/03 19:29:37;;;;;;;0.47;0.30;;;23.60;29.70;;;;;;5054955;28;20094;-51
2021/12/03 19:32:04;;;;;;;0.30;0.30;;;23.60;29.80;;;;;;5053335;28;20021;-47
2021/12/03 19:34:29;;;;;;;0.82;0.47;;;23.60;29.80;;;;;;5054361;28;20119;-49
2021/12/03 19:36:57;;;;;;;0.57;0.20;;;23.50;29.80;;;;;;5055028;28;20120;-45
2021/12/03 19:39:24;;;;;;;0.52;0.40;;;23.50;29.80;;;;;;5054605;28;20610;-52
2021/12/03 19:42:05;;;;;;;0.75;0.30;;;23.50;29.80;;;;;;5054085;28;20343;-47
2021/12/03 19:44:37;;;;;;;0.43;0.30;;;23.50;29.80;;;;;;5054640;28;20027;-48
2021/12/03 19:47:05;;;;;;;0.20;0.20;;;23.50;29.90;;;;;;5053525;28;20041;-45
2021/12/03 19:52:06;;;;;;;0.93;0.30;;;23.40;29.90;;;;;;5054490;28;20025;-49
2021/12/03 19:54:32;;;;;;;0.57;0.30;;;23.40;29.90;;;;;;5053744;28;20103;-47
2021/12/03 19:56:57;;;;;;;0.25;0.20;;;23.40;29.90;;;;;;5053895;28;20443;-47
2021/12/03 19:59:23;;;;;;;0.40;0.30;;;23.40;29.90;;;;;;5054849;28;20035;-48
2021/12/03 20:01:49;;;;;;;0.32;0.20;;;23.40;30.00;;;;;;5053272;28;20356;-53
2021/12/03 20:04:15;;;;;;;0.47;0.40;;;23.40;30.00;;;;;;5052333;28;20087;-52
2021/12/03 20:06:44;;;;;;;0.50;0.38;;;23.40;30.00;;;;;;5053479;28;20029;-48
2021/12/03 20:09:16;;;;;;;0.60;0.32;;;23.40;30.00;;;;;;5053644;28;20025;-51
2021/12/03 20:11:49;;;;;;;0.45;0.32;;;23.30;30.00;;;;;;5054086;28;20052;-50
2021/12/03 20:14:18;;;;;;;0.40;0.30;;;23.30;30.00;;;;;;5052918;28;20344;-50
2021/12/03 20:16:52;;;;;;;0.50;0.38;;;23.30;30.00;;;;;;5054516;28;20041;-59
2021/12/03 20:22:15;;;;;;;0.63;0.28;;;23.30;30.00;;;;;;5051515;28;20036;-49
2021/12/03 20:27:22;;;;;;;0.30;0.30;;;23.30;30.10;;;;;;5053536;28;20032;-52
2021/12/03 20:29:59;;;;;;;0.30;0.22;;;23.30;30.20;;;;;;5054049;28;20036;-52
2021/12/03 20:37:43;;;;;;;0.20;0.20;;;23.30;30.30;;;;;;5053456;28;20052;-49
2021/12/03 20:40:13;;;;;;;0.30;0.30;;;23.30;30.30;;;;;;5051885;28;20033;-49
2021/12/03 20:48:34;;;;;;;0.30;0.20;;;23.20;30.30;;;;;;5035372;28;20428;-51
2021/12/03 21:09:49;;;;;;;0.40;0.20;;;23.10;30.40;;;;;;5053888;28;20037;-49
2021/12/03 21:12:24;;;;;;;0.40;0.30;;;23.10;30.40;;;;;;5043167;28;20052;-47
2021/12/03 21:17:40;;;;;;;0.30;0.30;;;23.10;30.40;;;;;;5057281;28;20025;-47
2021/12/03 21:22:45;;;;;;;0.32;0.28;;;23.10;30.40;;;;;;5056690;28;20052;-49
2021/12/03 21:25:14;;;;;;;0.10;0.10;;;23.00;30.30;;;;;;5054555;28;20025;-52